Analomink, Pennsylvania
Current Conditions -  °F | °C
As of 3:53 AM on Thursday 27 Nov 2014 (Local Time) from KMPO Reporting Station
Unknown Precip Unknown Precip  
Wind Chill: 16°   Ceiling: 500
Heat Index: 27°   Visibility: 10mi
Dew Point: 24°   Wind: 13mph
Humidity: 89%   Direction: 310°NW
Pressure: 29.85"   Gusts: NA
Location:  41.05°N, 75.22°W
Report Text: KMPO 270853Z AUTO 31011KT 10SM UP OVC005 M03/M04 A2985 RMK AO2 SLP131 P0000 60000 T10281044 51012
Loading
Personal Weather Stations






























Interactive Weather Map New forecast layout! Learn more

10-Day Weather Forecast

Advertisements
Track Severe Weather on mobile